Terminal Aerodrome Forecast
Issued by NWS

Home | Current Version | Previous Version | Text Only | Print | Product List | Glossary On
Versions: 1 2 3 4 5 6 7 8 9 10 11 12 13 14 15 16 17 18 19 20
574
FTUS43 KAPX 181202 RRA
TAFMBL
TAF
KMBL 181202Z 1812/1912 11004KT P6SM -DZ OVC012
     FM181400 01009KT 4SM -DZ BR OVC020
     FM181700 01011G21KT 4SM -SHRA BR OVC020
     FM182300 35016G25KT P6SM -SHRA OVC030
     FM190500 34014G24KT 6SM -SHSNRA OVC030
     FM190700 33014G24KT 6SM -SHSN OVC030=

USA.gov is the U.S. government's official web portal to all federal, state and local government web resources and services.